createdAt,value
2022-11-05T00:00:37.668Z,9.18
2022-11-05T00:03:27.033Z,8.65
2022-11-05T00:06:14.406Z,8.83
2022-11-05T00:09:04.469Z,8.35
2022-11-05T00:11:51.756Z,7.90
2022-11-05T00:14:43.089Z,8.18
2022-11-05T00:17:13.429Z,8.05
2022-11-05T00:19:45.026Z,7.87
2022-11-05T00:22:32.809Z,8.35
2022-11-05T00:25:19.711Z,8.45
2022-11-05T00:27:51.452Z,9.03
2022-11-05T00:30:25.167Z,9.15
2022-11-05T00:32:53.515Z,9.18
2022-11-05T00:35:22.452Z,9.70
2022-11-05T00:37:50.795Z,8.83
2022-11-05T00:40:18.601Z,9.40
2022-11-05T00:43:05.001Z,9.90
2022-11-05T00:45:32.909Z,8.83
2022-11-05T00:48:19.211Z,8.98
2022-11-05T00:50:46.911Z,8.88
2022-11-05T00:53:14.771Z,8.83
2022-11-05T00:55:45.409Z,8.60
2022-11-05T00:58:17.292Z,8.98
2022-11-05T01:00:51.745Z,8.35
2022-11-05T01:03:23.480Z,8.85
2022-11-05T01:05:54.800Z,8.58
2022-11-05T01:08:25.463Z,8.60
2022-11-05T01:10:56.226Z,8.55
2022-11-05T01:13:27.882Z,8.20
2022-11-05T01:15:56.822Z,8.78
2022-11-05T01:18:24.736Z,8.00
2022-11-05T01:20:52.584Z,8.50
2022-11-05T01:23:20.780Z,8.18
2022-11-05T01:25:48.876Z,8.85
2022-11-05T01:28:16.371Z,8.13
2022-11-05T01:30:44.227Z,8.28
2022-11-05T01:33:12.156Z,7.53
2022-11-05T01:35:39.972Z,7.25
2022-11-05T01:38:07.461Z,6.72
2022-11-05T01:40:35.259Z,6.85
2022-11-05T01:43:02.770Z,7.53
2022-11-05T01:45:30.854Z,6.20
2022-11-05T01:48:17.028Z,6.58
2022-11-05T01:50:56.486Z,7.30
2022-11-05T01:53:53.843Z,7.20
2022-11-05T01:56:26.888Z,6.47
2022-11-05T02:01:29.168Z,6.25
2022-11-05T02:04:01.826Z,6.47
2022-11-05T02:06:32.626Z,9.50
2022-11-05T02:09:07.338Z,6.58
2022-11-05T02:11:34.976Z,6.85
2022-11-05T02:14:02.727Z,7.12
2022-11-05T02:16:53.922Z,7.37
2022-11-05T02:20:01.591Z,7.40
2022-11-05T02:23:21.644Z,6.67
2022-11-05T02:26:19.178Z,6.83
2022-11-05T02:29:18.670Z,6.83
2022-11-05T02:32:35.729Z,6.95
2022-11-05T02:35:20.749Z,7.20
2022-11-05T02:37:57.445Z,7.67
2022-11-05T02:40:55.425Z,7.55
2022-11-05T02:43:52.706Z,6.92
2022-11-05T02:46:47.031Z,7.53
2022-11-05T02:49:49.415Z,7.05
2022-11-05T02:52:28.382Z,7.20
2022-11-05T02:55:13.420Z,6.70
2022-11-05T02:57:47.410Z,6.60
2022-11-05T03:00:52.477Z,6.10
2022-11-05T03:03:34.595Z,6.80
2022-11-05T03:06:25.506Z,6.10
2022-11-05T03:09:36.895Z,5.83
2022-11-05T03:12:28.190Z,6.00
2022-11-05T03:15:22.801Z,13.28
2022-11-05T03:17:56.008Z,7.15
2022-11-05T03:20:50.751Z,6.78
2022-11-05T03:23:29.276Z,6.65
2022-11-05T03:26:08.424Z,6.40
2022-11-05T03:28:40.437Z,6.70
2022-11-05T03:31:10.462Z,6.90
2022-11-05T03:33:40.095Z,7.67
2022-11-05T03:36:15.196Z,7.08
2022-11-05T03:38:47.366Z,7.00
2022-11-05T03:41:16.117Z,7.95
2022-11-05T03:43:48.481Z,7.80
2022-11-05T03:46:30.233Z,7.03
2022-11-05T03:49:01.670Z,7.30
2022-11-05T03:51:46.728Z,7.47
2022-11-05T03:54:15.302Z,8.13
2022-11-05T03:57:18.939Z,8.65
2022-11-05T03:59:49.177Z,8.53
2022-11-05T04:02:22.069Z,8.05
2022-11-05T04:04:50.431Z,8.00
2022-11-05T04:07:37.134Z,8.70
2022-11-05T04:10:24.412Z,8.03
2022-11-05T04:13:11.153Z,8.08
2022-11-05T04:15:57.747Z,8.13
2022-11-05T04:18:25.331Z,8.45
2022-11-05T04:21:11.864Z,7.42
2022-11-05T04:23:57.768Z,7.80
2022-11-05T04:26:25.418Z,8.68
2022-11-05T04:29:11.861Z,8.78
2022-11-05T04:31:39.595Z,10.13
2022-11-05T04:34:07.386Z,10.32
2022-11-05T04:36:35.004Z,11.22
2022-11-05T04:39:02.569Z,12.25
2022-11-05T04:41:30.106Z,7.85
2022-11-05T04:43:57.811Z,6.95
2022-11-05T04:46:27.942Z,7.97
2022-11-05T04:48:55.472Z,7.35
2022-11-05T04:51:23.088Z,7.35
2022-11-05T04:53:50.712Z,11.85
2022-11-05T04:56:23.986Z,8.23
2022-11-05T04:58:52.109Z,8.08
2022-11-05T05:01:23.384Z,7.87
2022-11-05T05:03:53.513Z,7.60
2022-11-05T05:06:21.983Z,8.18
2022-11-05T05:08:51.529Z,8.15
2022-11-05T05:11:21.614Z,8.50
2022-11-05T05:13:50.184Z,8.03
2022-11-05T05:16:24.632Z,8.45
2022-11-05T05:18:53.479Z,8.70
2022-11-05T05:21:38.280Z,8.93
2022-11-05T05:24:12.336Z,8.43
2022-11-05T05:26:46.077Z,8.23
2022-11-05T05:29:14.912Z,8.50
2022-11-05T05:31:43.289Z,8.35
2022-11-05T05:34:13.601Z,8.63
2022-11-05T05:36:41.651Z,8.20
2022-11-05T05:39:10.374Z,13.98
2022-11-05T05:41:39.679Z,9.93
2022-11-05T05:44:07.805Z,8.23
2022-11-05T05:46:35.254Z,8.75
2022-11-05T05:49:06.702Z,8.40
2022-11-05T05:51:32.628Z,8.88
2022-11-05T05:54:00.116Z,9.88
2022-11-05T05:56:27.650Z,8.85
2022-11-05T05:58:55.225Z,7.78
2022-11-05T06:01:23.187Z,7.17
2022-11-05T06:03:50.645Z,6.83
2022-11-05T06:06:19.439Z,8.70
2022-11-05T06:08:48.990Z,7.30
2022-11-05T06:11:16.733Z,7.05
2022-11-05T06:13:44.230Z,8.30
2022-11-05T06:16:12.118Z,8.10
2022-11-05T06:18:40.022Z,8.25
2022-11-05T06:21:11.517Z,7.92
2022-11-05T06:23:41.709Z,8.40
2022-11-05T06:26:13.292Z,7.53
2022-11-05T06:28:41.664Z,7.67
2022-11-05T06:31:11.067Z,8.03
2022-11-05T06:33:39.778Z,9.65
2022-11-05T06:36:08.825Z,10.72
2022-11-05T06:38:36.999Z,11.53
2022-11-05T06:41:10.335Z,12.10
2022-11-05T06:43:36.253Z,11.20
2022-11-05T06:46:03.913Z,9.68
2022-11-05T06:48:31.559Z,9.08
2022-11-05T06:50:59.214Z,8.50
2022-11-05T06:53:27.703Z,7.65
2022-11-05T06:55:55.489Z,7.72
2022-11-05T06:58:23.215Z,7.97
2022-11-05T07:00:51.040Z,8.68
2022-11-05T07:03:18.524Z,8.03
2022-11-05T07:05:48.531Z,9.18
2022-11-05T07:08:16.331Z,7.87
2022-11-05T07:10:43.886Z,9.23
2022-11-05T07:13:12.128Z,8.83
2022-11-05T07:15:39.977Z,8.03
2022-11-05T07:18:07.686Z,9.18
2022-11-05T07:20:35.688Z,8.73
2022-11-05T07:23:11.840Z,8.58
2022-11-05T07:25:41.326Z,9.60
2022-11-05T07:28:10.511Z,7.37
2022-11-05T07:30:38.408Z,7.25
2022-11-05T07:33:05.844Z,7.95
2022-11-05T07:35:34.192Z,7.45
2022-11-05T07:38:01.931Z,7.45
2022-11-05T07:40:30.166Z,8.50
2022-11-05T07:43:00.429Z,9.28
2022-11-05T07:45:30.722Z,8.70
2022-11-05T07:48:03.634Z,8.55
2022-11-05T07:50:35.282Z,8.30
2022-11-05T07:53:06.252Z,7.95
2022-11-05T07:55:34.363Z,7.85
2022-11-05T07:58:02.373Z,7.92
2022-11-05T08:00:30.236Z,7.92
2022-11-05T08:03:08.269Z,11.10
2022-11-05T08:05:37.470Z,9.43
2022-11-05T08:08:07.969Z,8.90
2022-11-05T08:10:37.475Z,8.23
2022-11-05T08:13:06.873Z,8.08
2022-11-05T08:15:35.549Z,9.90
2022-11-05T08:18:07.251Z,8.13
2022-11-05T08:20:36.569Z,7.40
2022-11-05T08:23:04.529Z,7.55
2022-11-05T08:25:32.100Z,7.55
2022-11-05T08:28:07.132Z,7.33
2022-11-05T08:30:35.197Z,7.87
2022-11-05T08:33:07.448Z,7.62
2022-11-05T08:35:36.806Z,8.18
2022-11-05T08:38:07.224Z,8.93
2022-11-05T08:40:36.473Z,6.90
2022-11-05T08:43:07.073Z,7.37
2022-11-05T08:45:39.027Z,8.08
2022-11-05T08:48:10.906Z,9.28
2022-11-05T08:50:39.009Z,9.45
2022-11-05T08:53:08.370Z,8.30
2022-11-05T08:55:37.929Z,9.08
2022-11-05T08:58:17.453Z,8.98
2022-11-05T09:00:48.751Z,8.90
2022-11-05T09:03:17.628Z,9.20
2022-11-05T09:05:45.381Z,10.78
2022-11-05T09:08:17.017Z,10.15
2022-11-05T09:10:46.908Z,9.80
2022-11-05T09:13:18.666Z,10.03
2022-11-05T09:15:44.269Z,8.40
2022-11-05T09:18:13.836Z,7.60
2022-11-05T09:20:41.873Z,7.87
2022-11-05T09:23:11.755Z,9.03
2022-11-05T09:25:39.456Z,9.55
2022-11-05T09:28:17.622Z,8.90
2022-11-05T09:30:49.440Z,13.20
2022-11-05T09:33:21.362Z,11.95
2022-11-05T09:35:49.423Z,9.45
2022-11-05T09:38:17.904Z,9.33
2022-11-05T09:41:02.381Z,9.63
2022-11-05T09:43:38.256Z,11.73
2022-11-05T09:46:24.944Z,12.90
2022-11-05T09:49:02.804Z,15.08
2022-11-05T09:51:31.735Z,11.45
2022-11-05T09:54:00.518Z,9.68
2022-11-05T09:56:32.274Z,9.60
2022-11-05T09:59:25.402Z,9.20
2022-11-05T10:02:03.184Z,8.87
2022-11-05T10:04:34.137Z,8.53
2022-11-05T10:07:05.612Z,9.50
2022-11-05T10:09:37.969Z,9.25
2022-11-05T10:12:32.249Z,9.35
2022-11-05T10:15:14.408Z,9.18
2022-11-05T10:17:49.097Z,9.83
2022-11-05T10:20:28.048Z,8.65
2022-11-05T10:23:00.714Z,9.13
2022-11-05T10:25:32.734Z,10.63
2022-11-05T10:28:00.547Z,11.30
2022-11-05T10:30:28.211Z,11.48
2022-11-05T10:33:00.082Z,11.57
2022-11-05T10:35:31.398Z,11.57
2022-11-05T10:37:59.073Z,12.55
2022-11-05T10:40:31.953Z,12.18
2022-11-05T10:43:26.310Z,13.08
2022-11-05T10:46:28.527Z,12.73
2022-11-05T10:49:36.680Z,13.65
2022-11-05T10:52:24.413Z,13.65
2022-11-05T10:54:56.350Z,13.25
2022-11-05T10:57:38.037Z,12.78
2022-11-05T11:00:21.674Z,14.73
2022-11-05T11:03:02.819Z,14.75
2022-11-05T11:05:39.340Z,14.40
2022-11-05T11:08:12.269Z,14.33
2022-11-05T11:10:50.738Z,14.43
2022-11-05T11:13:28.247Z,14.38
2022-11-05T11:16:16.037Z,13.95
2022-11-05T11:18:43.859Z,12.80
2022-11-05T11:21:19.250Z,14.00
2022-11-05T11:24:09.094Z,14.38
2022-11-05T11:26:40.264Z,13.28
2022-11-05T11:29:25.339Z,12.50
2022-11-05T11:31:58.783Z,12.80
2022-11-05T11:34:35.830Z,12.73
2022-11-05T11:37:19.525Z,13.30
2022-11-05T11:39:51.252Z,12.10
2022-11-05T11:42:30.669Z,13.83
2022-11-05T11:45:03.189Z,22.70
2022-11-05T11:47:32.385Z,21.85
2022-11-05T11:50:02.164Z,24.45
2022-11-05T11:52:36.296Z,25.65
2022-11-05T11:55:20.629Z,22.82
2022-11-05T11:57:57.235Z,17.75
2022-11-05T12:00:26.453Z,17.12
2022-11-05T12:03:18.167Z,17.90
2022-11-05T12:05:57.797Z,13.53
2022-11-05T12:08:44.980Z,12.18
2022-11-05T12:11:14.861Z,12.88
2022-11-05T12:16:54.619Z,13.55
2022-11-05T12:19:42.669Z,12.47
2022-11-05T12:22:15.513Z,14.00
2022-11-05T12:24:54.150Z,14.90
2022-11-05T12:27:48.501Z,15.83
2022-11-05T12:30:20.165Z,25.05
2022-11-05T12:33:17.664Z,28.52
2022-11-05T12:36:01.599Z,16.75
2022-11-05T12:38:52.368Z,19.48
2022-11-05T12:41:40.175Z,19.75
2022-11-05T12:44:42.282Z,19.30
2022-11-05T12:47:39.524Z,21.05
2022-11-05T12:50:24.392Z,21.10
2022-11-05T12:53:23.250Z,21.52
2022-11-05T12:55:52.710Z,21.62
2022-11-05T12:58:37.438Z,21.57
2022-11-05T13:01:09.618Z,22.58
2022-11-05T13:03:54.831Z,22.25
2022-11-05T13:06:30.544Z,24.30
2022-11-05T13:09:09.400Z,27.62
2022-11-05T13:12:08.694Z,28.40
2022-11-05T13:14:59.862Z,34.73
2022-11-05T13:17:41.535Z,34.92
2022-11-05T13:20:29.835Z,32.03
2022-11-05T13:23:15.077Z,27.65
2022-11-05T13:25:51.319Z,31.10
2022-11-05T13:28:54.531Z,31.42
2022-11-05T13:31:27.669Z,31.03
2022-11-05T13:33:57.185Z,31.02
2022-11-05T13:37:03.684Z,41.20
2022-11-05T13:39:51.066Z,27.32
2022-11-05T13:42:44.167Z,23.25
2022-11-05T13:45:25.697Z,24.23
2022-11-05T13:48:50.050Z,26.68
2022-11-05T13:51:49.763Z,20.85
2022-11-05T13:54:57.502Z,17.15
2022-11-05T13:57:51.785Z,16.10
2022-11-05T14:00:24.933Z,17.55
2022-11-05T14:03:05.711Z,31.23
2022-11-05T14:05:38.035Z,38.35
2022-11-05T14:08:19.148Z,28.03
2022-11-05T14:11:07.094Z,22.80
2022-11-05T14:13:39.241Z,21.45
2022-11-05T14:16:20.332Z,18.42
2022-11-05T14:18:55.952Z,16.87
2022-11-05T14:21:31.217Z,16.90
2022-11-05T14:24:27.047Z,15.63
2022-11-05T14:27:06.031Z,15.40
2022-11-05T14:29:41.683Z,14.80
2022-11-05T14:32:21.215Z,15.43
2022-11-05T14:35:19.103Z,18.57
2022-11-05T14:37:55.713Z,15.00
2022-11-05T14:40:41.515Z,18.07
2022-11-05T14:43:20.737Z,21.52
2022-11-05T14:46:01.673Z,24.87
2022-11-05T14:48:49.439Z,32.70
2022-11-05T14:51:36.910Z,89.87
2022-11-05T14:54:25.095Z,51.75
2022-11-05T14:56:58.871Z,32.88
2022-11-05T14:59:33.963Z,28.23
2022-11-05T15:02:11.685Z,22.25
2022-11-05T15:04:42.024Z,20.60
2022-11-05T15:07:14.979Z,21.75
2022-11-05T15:10:08.923Z,25.65
2022-11-05T15:12:46.489Z,27.85
2022-11-05T15:15:21.977Z,30.92
2022-11-05T15:18:00.403Z,25.70
2022-11-05T15:20:44.262Z,22.32
2022-11-05T15:23:20.355Z,19.27
2022-11-05T15:26:22.357Z,16.87
2022-11-05T15:28:52.726Z,20.00
2022-11-05T15:31:36.610Z,17.20
2022-11-05T15:34:32.712Z,15.88
2022-11-05T15:37:05.878Z,17.52
2022-11-05T15:39:44.692Z,18.32
2022-11-05T15:42:22.286Z,20.35
2022-11-05T15:44:54.748Z,20.35
2022-11-05T15:47:26.118Z,22.50
2022-11-05T15:49:57.563Z,22.07
2022-11-05T15:52:35.871Z,22.70
2022-11-05T15:55:20.146Z,26.23
2022-11-05T15:57:58.417Z,28.10
2022-11-05T16:00:29.772Z,32.10
2022-11-05T16:03:02.617Z,31.48
2022-11-05T16:05:37.701Z,31.17
2022-11-05T16:08:05.412Z,25.97
2022-11-05T16:10:37.681Z,22.13
2022-11-05T16:13:42.270Z,20.57
2022-11-05T16:16:21.259Z,18.75
2022-11-05T16:18:49.000Z,16.65
2022-11-05T16:21:21.691Z,17.12
2022-11-05T16:23:58.837Z,15.57
2022-11-05T16:29:18.339Z,18.37
2022-11-05T16:31:51.864Z,17.27
2022-11-05T16:34:29.973Z,17.80
2022-11-05T16:36:58.932Z,16.17
2022-11-05T16:39:27.333Z,15.10
2022-11-05T16:41:54.696Z,15.40
2022-11-05T16:44:22.457Z,15.95
2022-11-05T16:46:50.388Z,14.87
2022-11-05T16:49:19.964Z,13.45
2022-11-05T16:51:47.420Z,14.73
2022-11-05T16:54:14.974Z,18.27
2022-11-05T16:56:43.345Z,16.25
2022-11-05T16:59:13.035Z,17.98
2022-11-05T17:01:42.497Z,17.10
2022-11-05T17:04:12.981Z,16.42
2022-11-05T17:06:40.437Z,16.00
2022-11-05T17:09:07.890Z,16.60
2022-11-05T17:11:35.779Z,16.90
2022-11-05T17:14:03.484Z,16.77
2022-11-05T17:16:31.796Z,16.67
2022-11-05T17:18:59.586Z,16.45
2022-11-05T17:21:28.293Z,14.63
2022-11-05T17:23:55.766Z,13.65
2022-11-05T17:26:23.571Z,13.93
2022-11-05T17:28:51.213Z,13.08
2022-11-05T17:31:19.146Z,13.65
2022-11-05T17:33:46.764Z,14.38
2022-11-05T17:36:15.629Z,14.80
2022-11-05T17:38:43.170Z,14.83
2022-11-05T17:41:16.829Z,15.75
2022-11-05T17:43:44.842Z,15.15
2022-11-05T17:46:15.766Z,15.75
2022-11-05T17:48:44.299Z,18.27
2022-11-05T17:51:15.279Z,17.60
2022-11-05T17:53:44.180Z,15.48
2022-11-05T17:56:14.023Z,15.78
2022-11-05T17:58:42.264Z,15.50
2022-11-05T18:01:27.241Z,14.78
2022-11-05T18:03:55.547Z,13.40
2022-11-05T18:06:23.376Z,13.55
2022-11-05T18:08:51.159Z,13.43
2022-11-05T18:11:18.836Z,13.83
2022-11-05T18:13:46.630Z,13.43
2022-11-05T18:16:14.303Z,13.00
2022-11-05T18:18:42.034Z,15.03
2022-11-05T18:21:09.610Z,14.93
2022-11-05T18:23:37.287Z,16.62
2022-11-05T18:26:11.584Z,16.10
2022-11-05T18:28:39.587Z,16.62
2022-11-05T18:31:18.335Z,15.38
2022-11-05T18:33:49.407Z,15.38
2022-11-05T18:36:23.445Z,16.05
2022-11-05T18:38:51.435Z,14.45
2022-11-05T18:41:19.846Z,14.28
2022-11-05T18:43:47.660Z,14.43
2022-11-05T18:46:29.677Z,16.32
2022-11-05T18:48:45.168Z,15.60
2022-11-05T18:51:15.467Z,15.65
2022-11-05T18:53:43.359Z,15.20
2022-11-05T18:56:14.538Z,15.30
2022-11-05T18:58:42.831Z,14.47
2022-11-05T19:01:21.562Z,16.45
2022-11-05T19:03:54.137Z,15.80
2022-11-05T19:06:21.491Z,14.38
2022-11-05T19:08:49.125Z,14.63
2022-11-05T19:11:20.579Z,15.65
2022-11-05T19:13:48.903Z,16.00
2022-11-05T19:16:20.452Z,15.38
2022-11-05T19:18:49.097Z,15.93
2022-11-05T19:21:21.243Z,15.23
2022-11-05T19:23:49.164Z,13.90
2022-11-05T19:26:28.189Z,15.05
2022-11-05T19:28:52.424Z,12.23
2022-11-05T19:31:23.161Z,14.73
2022-11-05T19:33:51.509Z,15.08
2022-11-05T19:36:22.156Z,14.78
2022-11-05T19:38:57.197Z,13.98
2022-11-05T19:41:26.008Z,12.18
2022-11-05T19:43:54.815Z,12.55
2022-11-05T19:46:24.367Z,13.13
2022-11-05T19:48:52.342Z,13.50
2022-11-05T19:51:24.577Z,12.73
2022-11-05T19:53:54.576Z,14.68
2022-11-05T19:56:26.459Z,15.30
2022-11-05T19:58:54.212Z,13.68
2022-11-05T20:01:23.437Z,13.28
2022-11-05T20:03:51.729Z,13.58
2022-11-05T20:06:28.166Z,13.85
2022-11-05T20:11:32.136Z,11.78
2022-11-05T20:13:59.865Z,12.13
2022-11-05T20:16:35.609Z,12.63
2022-11-05T20:19:06.058Z,11.65
2022-11-05T20:21:34.579Z,11.68
2022-11-05T20:24:02.236Z,11.63
2022-11-05T20:26:30.466Z,11.12
2022-11-05T20:28:58.510Z,11.12
2022-11-05T20:31:25.922Z,11.53
2022-11-05T20:33:54.069Z,11.57
2022-11-05T20:36:24.272Z,11.15
2022-11-05T20:38:57.477Z,11.95
2022-11-05T20:41:26.395Z,11.35
2022-11-05T20:43:54.272Z,12.73
2022-11-05T20:46:22.305Z,12.43
2022-11-05T20:48:50.193Z,12.88
2022-11-05T20:51:22.385Z,12.23
2022-11-05T20:53:56.181Z,11.80
2022-11-05T20:56:28.856Z,12.47
2022-11-05T20:58:58.646Z,13.00
2022-11-05T21:01:29.537Z,11.63
2022-11-05T21:03:59.056Z,10.68
2022-11-05T21:06:26.602Z,11.48
2022-11-05T21:08:54.850Z,10.45
2022-11-05T21:11:23.138Z,11.45
2022-11-05T21:13:50.520Z,11.45
2022-11-05T21:16:19.831Z,12.68
2022-11-05T21:18:47.713Z,12.00
2022-11-05T21:21:18.688Z,12.85
2022-11-05T21:23:46.663Z,12.68
2022-11-05T21:26:16.331Z,13.13
2022-11-05T21:28:43.968Z,12.30
2022-11-05T21:31:12.011Z,13.40
2022-11-05T21:33:39.873Z,12.95
2022-11-05T21:36:11.161Z,12.70
2022-11-05T21:38:39.610Z,13.40
2022-11-05T21:41:09.501Z,12.37
2022-11-05T21:43:41.188Z,12.40
2022-11-05T21:46:10.744Z,12.18
2022-11-05T21:48:38.522Z,11.85
2022-11-05T21:51:24.539Z,12.37
2022-11-05T21:54:10.125Z,12.58
2022-11-05T21:56:56.191Z,12.93
2022-11-05T21:59:43.462Z,12.00
2022-11-05T22:02:15.185Z,13.28
2022-11-05T22:04:47.293Z,13.80
2022-11-05T22:07:19.461Z,14.30
2022-11-05T22:09:47.525Z,13.60
2022-11-05T22:12:15.075Z,15.28
2022-11-05T22:14:42.598Z,15.98
2022-11-05T22:17:10.410Z,14.87
2022-11-05T22:19:38.180Z,14.75
2022-11-05T22:22:06.608Z,13.28
2022-11-05T22:24:35.401Z,13.53
2022-11-05T22:27:10.393Z,13.10
2022-11-05T22:29:38.396Z,12.37
2022-11-05T22:32:06.628Z,12.63
2022-11-05T22:34:34.114Z,10.82
2022-11-05T22:37:01.748Z,11.88
2022-11-05T22:39:29.512Z,12.45
2022-11-05T22:41:58.056Z,12.82
2022-11-05T22:44:27.235Z,13.60
2022-11-05T22:46:55.124Z,13.30
2022-11-05T22:49:23.248Z,14.55
2022-11-05T22:51:50.989Z,14.18
2022-11-05T22:54:18.803Z,12.43
2022-11-05T22:56:46.387Z,12.28
2022-11-05T22:59:15.255Z,12.60
2022-11-05T23:01:44.690Z,13.40
2022-11-05T23:04:13.655Z,13.05
2022-11-05T23:06:59.878Z,13.15
2022-11-05T23:09:53.216Z,12.82
2022-11-05T23:12:34.885Z,12.63
2022-11-05T23:15:06.810Z,13.25
2022-11-05T23:17:53.193Z,12.35
2022-11-05T23:20:41.325Z,12.45
2022-11-05T23:23:31.207Z,12.68
2022-11-05T23:26:02.127Z,12.35
2022-11-05T23:28:29.517Z,13.32
2022-11-05T23:31:15.638Z,14.07
2022-11-05T23:33:43.047Z,14.70
2022-11-05T23:36:31.397Z,13.45
2022-11-05T23:38:59.162Z,13.88
2022-11-05T23:41:45.118Z,13.38
2022-11-05T23:44:31.155Z,13.93
2022-11-05T23:47:17.279Z,14.40
2022-11-05T23:49:44.587Z,13.83
2022-11-05T23:52:11.944Z,14.00
2022-11-05T23:54:39.640Z,12.18
2022-11-05T23:57:07.022Z,11.60
2022-11-05T23:59:34.487Z,11.33
